Time;durP1;ratioP1;P1;durP2;ratioP2;P2;SDS_P1;SDS_P2;PMS_P1;PMS_P2;Temp;Humidity;BMP_temperature;BMP_pressure;BME280_temperature;BME280_humidity;BME280_pressure;Samples;Min_cycle;Max_cycle;Signal;HPM_P1;HPM_P2
2022/05/15 00:00:45;;;;;;;6.60;4.75;;;;;;;15.61;82.05;96492.88;5115165;28;20084;-61
2022/05/15 00:03:15;;;;;;;5.72;4.93;;;;;;;15.60;82.22;96485.94;5115085;28;20493;-63
2022/05/15 00:05:42;;;;;;;5.65;5.15;;;;;;;15.55;82.08;96488.84;5115054;28;20060;-64
2022/05/15 00:08:09;;;;;;;5.63;5.03;;;;;;;15.49;82.44;96492.69;5114894;27;20028;-63
2022/05/15 00:10:36;;;;;;;7.07;4.88;;;;;;;15.44;82.42;96491.25;5114980;27;20419;-62
2022/05/15 00:13:02;;;;;;;9.27;4.90;;;;;;;15.35;82.62;96492.66;5114821;28;20019;-61
2022/05/15 00:15:30;;;;;;;4.70;4.30;;;;;;;15.28;82.62;96494.78;5114938;27;20427;-62
2022/05/15 00:17:56;;;;;;;7.82;4.78;;;;;;;15.31;82.39;96499.88;5114075;28;20027;-64
2022/05/15 00:20:21;;;;;;;9.35;5.32;;;;;;;15.26;82.30;96504.56;5114756;28;20170;-63
2022/05/15 00:22:47;;;;;;;8.07;4.50;;;;;;;15.24;81.88;96504.66;5114581;28;20097;-64
2022/05/15 00:25:14;;;;;;;5.65;5.05;;;;;;;15.13;82.83;96514.94;5114583;28;20453;-65
2022/05/15 00:27:39;;;;;;;6.47;4.75;;;;;;;15.06;83.77;96511.81;5114591;28;20027;-64
2022/05/15 00:30:06;;;;;;;13.38;5.25;;;;;;;15.00;83.98;96510.41;5114464;28;20031;-63
2022/05/15 00:32:32;;;;;;;7.18;4.93;;;;;;;15.05;83.68;96506.66;5114453;28;20090;-64
2022/05/15 00:34:58;;;;;;;5.22;4.72;;;;;;;15.11;83.47;96509.75;5114516;28;20032;-62
2022/05/15 00:37:25;;;;;;;8.18;4.80;;;;;;;15.17;83.53;96511.19;5114418;28;20011;-63
2022/05/15 00:39:50;;;;;;;6.20;4.82;;;;;;;15.19;82.97;96514.59;5114334;28;20051;-65
2022/05/15 00:42:16;;;;;;;5.68;5.07;;;;;;;15.21;82.97;96506.63;5114240;28;20062;-65
2022/05/15 00:44:42;;;;;;;11.75;4.88;;;;;;;15.21;82.67;96510.09;5114073;28;20043;-60
2022/05/15 00:47:07;;;;;;;6.07;4.80;;;;;;;15.23;82.80;96510.03;5114253;28;20016;-62
2022/05/15 00:49:35;;;;;;;7.97;4.45;;;;;;;15.12;82.49;96505.34;5114130;28;20385;-61
2022/05/15 00:52:07;;;;;;;5.95;4.80;;;;;;;15.10;82.82;96501.94;5114149;28;20046;-64
2022/05/15 00:54:37;;;;;;;7.60;4.82;;;;;;;15.15;82.44;96499.91;5114085;28;20110;-62
2022/05/15 00:57:10;;;;;;;5.20;4.65;;;;;;;15.15;82.15;96500.75;5114156;28;20112;-64
2022/05/15 00:59:45;;;;;;;5.40;4.90;;;;;;;15.09;81.86;96508.16;5114019;28;20081;-61
2022/05/15 01:02:13;;;;;;;8.63;5.40;;;;;;;15.04;81.80;96505.78;5114048;28;20027;-61
2022/05/15 01:04:40;;;;;;;6.95;4.78;;;;;;;15.00;81.87;96509.53;5113995;28;20484;-63
2022/05/15 01:07:06;;;;;;;6.70;4.80;;;;;;;15.01;81.92;96504.19;5113914;28;20024;-65
2022/05/15 01:09:32;;;;;;;6.70;5.25;;;;;;;15.02;81.76;96507.69;5113842;28;20135;-63
2022/05/15 01:12:00;;;;;;;9.18;5.50;;;;;;;14.99;81.42;96513.94;5113700;28;20019;-64
2022/05/15 01:14:26;;;;;;;11.27;5.50;;;;;;;14.90;81.55;96509.22;5113680;28;20557;-61
2022/05/15 01:16:52;;;;;;;15.23;5.32;;;;;;;14.84;81.66;96509.56;5113875;28;20024;-65
2022/05/15 01:19:29;;;;;;;5.97;4.72;;;;;;;14.76;81.47;96512.56;5113822;28;20020;-63
2022/05/15 01:21:57;;;;;;;4.97;4.57;;;;;;;14.69;81.26;96508.59;5113779;28;20076;-62
2022/05/15 01:24:23;;;;;;;9.23;5.03;;;;;;;14.63;81.35;96504.53;5113601;28;20023;-61
2022/05/15 01:26:49;;;;;;;8.27;5.20;;;;;;;14.52;82.29;96503.31;5113837;28;20027;-61
2022/05/15 01:29:15;;;;;;;6.65;5.38;;;;;;;14.45;82.24;96501.94;5113464;28;20077;-63
2022/05/15 01:31:41;;;;;;;9.93;5.47;;;;;;;14.37;82.37;96501.50;5113585;28;20034;-64
2022/05/15 01:34:10;;;;;;;8.07;5.18;;;;;;;14.32;82.62;96504.38;5113524;28;20382;-61
2022/05/15 01:36:37;;;;;;;7.80;5.38;;;;;;;14.32;83.08;96511.41;5113556;28;20519;-63
2022/05/15 01:39:06;;;;;;;9.15;5.28;;;;;;;14.31;82.94;96509.72;5113579;28;20024;-62
2022/05/15 01:41:32;;;;;;;5.93;5.15;;;;;;;14.31;82.41;96510.59;5113555;28;20089;-64
2022/05/15 01:43:57;;;;;;;9.43;5.50;;;;;;;14.30;82.29;96514.13;5113310;28;20058;-61
2022/05/15 01:46:26;;;;;;;5.65;4.88;;;;;;;14.20;81.97;96518.19;5113400;28;20063;-63
2022/05/15 01:48:53;;;;;;;6.68;5.28;;;;;;;14.24;81.82;96517.13;5113420;28;20019;-62
2022/05/15 01:51:20;;;;;;;8.38;4.72;;;;;;;14.28;81.08;96530.03;5113347;28;20030;-61
2022/05/15 01:53:46;;;;;;;5.70;5.10;;;;;;;14.27;81.27;96524.84;5113308;28;20027;-62
2022/05/15 01:56:12;;;;;;;5.82;4.70;;;;;;;14.20;81.24;96529.56;5113321;28;20039;-64
2022/05/15 01:58:39;;;;;;;8.43;5.28;;;;;;;14.22;81.21;96529.50;5113333;28;20404;-61
2022/05/15 02:01:05;;;;;;;11.77;5.40;;;;;;;14.19;81.28;96534.91;5113286;28;20030;-65
2022/05/15 02:03:31;;;;;;;6.03;5.10;;;;;;;14.22;81.49;96543.50;5113349;28;20477;-65
2022/05/15 02:05:57;;;;;;;5.75;5.20;;;;;;;14.26;81.51;96541.53;5113271;28;20041;-61
2022/05/15 02:08:23;;;;;;;7.97;5.20;;;;;;;14.27;81.58;96536.19;5113208;28;20043;-62
2022/05/15 02:10:48;;;;;;;11.60;5.40;;;;;;;14.30;81.82;96532.56;5113140;28;20044;-63
2022/05/15 02:13:15;;;;;;;5.68;5.18;;;;;;;14.25;82.14;96538.09;5113126;28;20111;-63
2022/05/15 02:15:40;;;;;;;9.48;6.22;;;;;;;14.20;82.43;96531.34;5113206;28;20022;-62
2022/05/15 02:18:06;;;;;;;6.13;5.15;;;;;;;14.18;82.58;96531.41;5113208;28;20024;-64
2022/05/15 02:20:32;;;;;;;7.40;5.65;;;;;;;14.18;82.35;96530.59;5113037;28;20195;-64
2022/05/15 02:22:57;;;;;;;9.00;5.25;;;;;;;14.21;82.39;96541.78;5113036;28;20529;-61
2022/05/15 02:25:23;;;;;;;6.53;5.80;;;;;;;14.22;82.59;96537.38;5113045;28;20350;-62
2022/05/15 02:27:49;;;;;;;8.73;6.10;;;;;;;14.22;82.60;96542.63;5113079;28;20081;-65
2022/05/15 02:30:16;;;;;;;7.43;5.68;;;;;;;14.14;82.90;96543.91;5112947;28;20450;-65
2022/05/15 02:32:42;;;;;;;6.03;5.45;;;;;;;14.05;82.27;96551.44;5112986;28;20047;-64
2022/05/15 02:35:09;;;;;;;8.50;6.28;;;;;;;13.97;83.13;96552.66;5113048;28;20503;-63
2022/05/15 02:37:35;;;;;;;7.20;6.20;;;;;;;14.02;82.73;96555.91;5112892;28;20119;-64
2022/05/15 02:40:01;;;;;;;9.35;6.55;;;;;;;13.96;83.00;96550.09;5113792;28;20098;-65
2022/05/15 02:42:26;;;;;;;7.05;6.38;;;;;;;13.93;83.13;96552.91;5116652;28;20158;-61
2022/05/15 02:44:52;;;;;;;10.45;5.97;;;;;;;13.98;82.45;96554.38;5116674;28;20524;-61
2022/05/15 02:47:17;;;;;;;16.98;6.75;;;;;;;13.95;82.04;96551.03;5116555;28;20453;-61
2022/05/15 02:52:28;;;;;;;7.45;6.13;;;;;;;13.93;81.50;96559.00;5116840;28;20484;-63
2022/05/15 02:54:53;;;;;;;10.50;6.35;;;;;;;13.85;81.16;96556.75;5116410;28;20016;-65
2022/05/15 02:57:19;;;;;;;7.97;6.55;;;;;;;13.80;81.26;96560.56;5116313;28;20028;-61
2022/05/15 02:59:44;;;;;;;8.55;6.60;;;;;;;13.79;81.47;96561.50;5116305;28;20023;-63
2022/05/15 03:02:10;;;;;;;8.57;6.70;;;;;;;13.76;81.02;96555.44;5116230;28;20047;-62
2022/05/15 03:04:36;;;;;;;7.72;6.63;;;;;;;13.72;80.93;96558.31;5116197;28;20035;-61
2022/05/15 03:07:07;;;;;;;9.65;6.93;;;;;;;13.69;80.80;96561.94;5116203;27;20023;-65
2022/05/15 03:09:33;;;;;;;8.85;6.78;;;;;;;13.66;81.57;96563.91;5116083;28;20031;-62
2022/05/15 03:11:59;;;;;;;8.65;6.88;;;;;;;13.58;81.25;96564.28;5116102;28;20043;-62
2022/05/15 03:14:25;;;;;;;8.98;6.45;;;;;;;13.62;80.99;96564.06;5115929;28;20038;-63
2022/05/15 03:16:51;;;;;;;8.27;7.05;;;;;;;13.59;80.96;96560.72;5116232;28;20016;-63
2022/05/15 03:19:17;;;;;;;7.72;6.68;;;;;;;13.59;80.78;96561.56;5115898;28;20030;-61
2022/05/15 03:21:42;;;;;;;8.02;7.25;;;;;;;13.49;81.23;96553.28;5115914;28;20022;-60
2022/05/15 03:24:10;;;;;;;8.02;7.32;;;;;;;13.55;80.99;96561.81;5115892;28;20392;-63
2022/05/15 03:26:39;;;;;;;8.70;7.80;;;;;;;13.60;80.85;96557.16;5115877;28;20137;-62
2022/05/15 03:29:06;;;;;;;8.27;7.05;;;;;;;13.62;80.63;96561.44;5115776;28;20016;-62
2022/05/15 03:31:36;;;;;;;8.30;7.50;;;;;;;13.63;80.64;96562.25;5115711;28;20020;-62
2022/05/15 03:34:03;;;;;;;8.45;7.65;;;;;;;13.64;80.37;96556.09;5115584;28;20038;-62
2022/05/15 03:36:28;;;;;;;8.15;7.32;;;;;;;13.65;80.77;96563.03;5115574;28;20028;-64
2022/05/15 03:38:54;;;;;;;9.80;7.32;;;;;;;13.72;81.00;96558.31;5115496;28;20038;-62
2022/05/15 03:41:20;;;;;;;8.70;7.90;;;;;;;13.78;81.02;96560.63;5115594;28;20027;-61
2022/05/15 03:43:45;;;;;;;9.43;7.38;;;;;;;13.92;81.02;96556.44;5115262;28;20125;-65
2022/05/15 03:46:11;;;;;;;8.57;7.47;;;;;;;14.08;80.50;96564.41;5115339;28;20028;-63
2022/05/15 03:48:37;;;;;;;7.80;7.03;;;;;;;14.23;79.91;96560.97;5115392;28;20085;-61
2022/05/15 03:51:03;;;;;;;7.30;6.60;;;;;;;14.47;79.37;96562.38;5115399;28;20419;-62
2022/05/15 03:53:29;;;;;;;8.43;6.80;;;;;;;14.70;78.44;96560.28;5115129;28;20068;-61
2022/05/15 03:55:58;;;;;;;8.15;6.50;;;;;;;14.89;77.73;96555.75;5115232;28;20032;-64
2022/05/15 03:58:26;;;;;;;6.28;5.68;;;;;;;15.05;76.76;96557.53;5115106;28;20074;-61
2022/05/15 04:00:52;;;;;;;7.15;6.22;;;;;;;15.20;76.35;96555.81;5115118;28;20016;-61
2022/05/15 04:03:18;;;;;;;7.35;6.07;;;;;;;15.33;75.74;96558.63;5115100;28;20027;-62
2022/05/15 04:05:44;;;;;;;7.60;6.35;;;;;;;15.38;75.30;96558.38;5115027;28;20020;-61
2022/05/15 04:08:10;;;;;;;6.43;5.82;;;;;;;15.44;75.60;96563.25;5114992;28;20146;-60
2022/05/15 04:10:37;;;;;;;7.07;5.68;;;;;;;15.75;74.88;96558.00;5114886;28;20529;-62
2022/05/15 04:13:03;;;;;;;6.40;5.60;;;;;;;16.14;74.17;96556.59;5114775;27;20062;-63
2022/05/15 04:15:30;;;;;;;7.43;5.05;;;;;;;16.60;72.36;96562.63;5114931;28;20423;-60
2022/05/15 04:17:56;;;;;;;5.25;4.75;;;;;;;16.92;70.82;96561.56;5114780;28;20088;-63
2022/05/15 04:20:24;;;;;;;5.50;4.97;;;;;;;17.08;69.98;96565.88;5114857;28;20024;-64
2022/05/15 04:22:50;;;;;;;6.95;4.90;;;;;;;17.17;69.80;96567.94;5114745;28;20032;-62
2022/05/15 04:25:17;;;;;;;5.68;4.88;;;;;;;17.22;70.07;96575.59;5114541;28;20023;-62
2022/05/15 04:27:43;;;;;;;5.03;4.50;;;;;;;17.20;70.04;96570.41;5114525;28;20064;-63
2022/05/15 04:30:12;;;;;;;5.53;5.03;;;;;;;17.21;69.74;96576.50;5114773;28;20088;-64
2022/05/15 04:32:37;;;;;;;6.85;5.07;;;;;;;17.15;69.78;96573.31;5114440;28;20020;-64
2022/05/15 04:35:04;;;;;;;5.55;5.05;;;;;;;17.04;70.32;96576.63;5114506;28;20024;-63
2022/05/15 04:37:29;;;;;;;5.45;4.70;;;;;;;16.95;70.61;96571.94;5114420;28;20023;-64
2022/05/15 04:39:55;;;;;;;4.97;4.50;;;;;;;16.92;70.93;96574.78;5114548;28;20020;-64
2022/05/15 04:42:21;;;;;;;4.85;4.45;;;;;;;16.91;71.17;96571.28;5114235;28;20016;-61
2022/05/15 04:44:48;;;;;;;6.18;4.80;;;;;;;16.92;71.57;96574.78;5114242;28;20053;-62
2022/05/15 04:47:14;;;;;;;5.72;4.75;;;;;;;16.87;72.34;96572.41;5114200;28;20031;-62
2022/05/15 04:49:40;;;;;;;5.88;4.93;;;;;;;16.92;72.25;96580.06;5114212;28;20035;-62
2022/05/15 04:52:06;;;;;;;5.32;4.82;;;;;;;17.02;71.92;96575.88;5114139;28;20016;-61
2022/05/15 04:54:31;;;;;;;7.15;4.63;;;;;;;17.20;71.91;96578.31;5114003;28;20544;-63
2022/05/15 04:56:57;;;;;;;6.20;5.20;;;;;;;17.54;72.92;96575.25;5114170;28;20110;-61
2022/05/15 04:59:23;;;;;;;6.47;5.07;;;;;;;18.08;72.12;96577.91;5114191;28;20106;-63
2022/05/15 05:01:49;;;;;;;4.75;4.18;;;;;;;18.74;71.53;96579.63;5114030;28;20137;-62
2022/05/15 05:04:15;;;;;;;4.45;3.50;;;;;;;19.40;69.81;96587.31;5113577;28;20043;-63
2022/05/15 05:06:41;;;;;;;4.57;3.72;;;;;;;19.92;67.67;96584.38;5113890;28;20030;-62
2022/05/15 05:09:07;;;;;;;5.35;4.05;;;;;;;20.42;66.64;96578.03;5113850;28;20068;-60
2022/05/15 05:11:33;;;;;;;3.67;3.38;;;;;;;20.94;64.99;96577.56;5113895;28;20059;-62
2022/05/15 05:13:59;;;;;;;4.10;3.72;;;;;;;21.40;63.59;96581.94;5113682;28;20062;-61
2022/05/15 05:16:25;;;;;;;4.95;3.95;;;;;;;21.88;61.84;96580.69;5113844;28;20027;-60
2022/05/15 05:18:51;;;;;;;4.07;3.78;;;;;;;22.34;61.51;96581.25;5113752;28;20027;-61
2022/05/15 05:21:17;;;;;;;5.80;3.30;;;;;;;22.78;60.59;96584.75;5113688;28;20034;-62
2022/05/15 05:23:43;;;;;;;6.85;3.58;;;;;;;23.17;59.45;96581.34;5113644;28;20024;-61
2022/05/15 05:26:15;;;;;;;6.70;3.35;;;;;;;23.54;59.98;96588.75;5113692;28;20028;-61
2022/05/15 05:28:40;;;;;;;6.05;3.80;;;;;;;23.96;58.62;96587.63;5113791;28;20488;-62
2022/05/15 05:31:06;;;;;;;3.60;3.25;;;;;;;24.32;57.20;96578.19;5113716;28;20020;-62
2022/05/15 05:33:32;;;;;;;3.85;3.35;;;;;;;24.69;54.39;96574.72;5113454;28;20051;-62
2022/05/15 05:35:58;;;;;;;4.20;3.40;;;;;;;24.87;54.35;96573.97;5113618;28;20417;-60
2022/05/15 05:38:23;;;;;;;4.03;3.63;;;;;;;25.07;53.64;96581.91;5113417;28;20102;-61
2022/05/15 05:40:49;;;;;;;4.18;3.70;;;;;;;25.03;51.08;96575.13;5112244;28;20152;-62
2022/05/15 05:43:15;;;;;;;6.20;3.88;;;;;;;25.17;52.94;96584.50;5113279;28;20100;-60
2022/05/15 05:45:40;;;;;;;4.55;4.13;;;;;;;25.11;51.30;96584.09;5113424;28;20381;-60
2022/05/15 05:48:07;;;;;;;4.45;4.05;;;;;;;25.09;52.16;96594.13;5113342;28;20016;-61
2022/05/15 05:50:33;;;;;;;6.47;4.15;;;;;;;25.15;51.39;96590.00;5113330;28;20039;-61
2022/05/15 05:52:59;;;;;;;7.30;3.90;;;;;;;25.31;52.73;96585.84;5113399;28;20032;-60
2022/05/15 05:55:27;;;;;;;8.63;4.53;;;;;;;25.35;51.41;96589.91;5113324;28;20031;-61
2022/05/15 05:57:52;;;;;;;4.65;4.25;;;;;;;25.18;50.65;96596.88;5113347;28;20024;-61
2022/05/15 06:00:38;;;;;;;7.28;4.20;;;;;;;25.14;51.41;96592.84;5113275;28;20051;-60
2022/05/15 06:05:50;;;;;;;8.02;4.22;;;;;;;25.02;52.45;96590.38;5113685;28;20038;-61
2022/05/15 06:08:17;;;;;;;6.38;4.45;;;;;;;24.96;51.05;96589.09;5113235;28;20457;-61
2022/05/15 06:10:43;;;;;;;6.80;4.22;;;;;;;25.01;51.60;96591.34;5113229;28;20027;-60
2022/05/15 06:13:09;;;;;;;4.90;4.07;;;;;;;25.30;49.63;96589.50;5113004;28;20020;-61
2022/05/15 06:15:35;;;;;;;5.82;4.28;;;;;;;25.35;50.29;96588.03;5114907;28;20023;-62
2022/05/15 06:18:03;;;;;;;6.97;4.57;;;;;;;25.46;49.73;96594.16;5117168;28;20028;-61
2022/05/15 06:20:30;;;;;;;6.13;4.55;;;;;;;25.20;49.26;96589.56;5117031;28;20065;-60
2022/05/15 06:22:57;;;;;;;6.93;4.28;;;;;;;24.76;50.33;96585.66;5117133;27;20059;-61
2022/05/15 06:25:23;;;;;;;6.47;4.22;;;;;;;24.43;49.11;96593.22;5117034;27;20023;-62
2022/05/15 06:27:49;;;;;;;5.20;4.43;;;;;;;23.92;50.90;96586.22;5116948;28;20420;-60
2022/05/15 06:30:16;;;;;;;5.70;4.60;;;;;;;24.25;50.71;96591.28;5116954;28;20011;-62
2022/05/15 06:32:43;;;;;;;6.05;4.07;;;;;;;24.28;51.92;96590.13;5116814;28;20024;-60
2022/05/15 06:35:12;;;;;;;6.03;4.93;;;;;;;24.00;50.45;96584.69;5116803;28;20238;-62
2022/05/15 06:37:38;;;;;;;7.47;4.40;;;;;;;23.96;52.01;96589.47;5116727;28;20027;-61
2022/05/15 06:40:06;;;;;;;6.00;4.78;;;;;;;23.98;53.25;96588.34;5116825;28;20024;-61
2022/05/15 06:42:34;;;;;;;9.25;3.92;;;;;;;24.20;53.51;96580.19;5116591;28;20472;-62
2022/05/15 06:44:59;;;;;;;6.28;3.92;;;;;;;24.65;50.79;96586.66;5116689;28;20028;-61
2022/05/15 06:47:26;;;;;;;6.63;4.43;;;;;;;25.07;49.77;96584.56;5115346;28;20464;-61
2022/05/15 06:49:52;;;;;;;8.35;3.92;;;;;;;25.33;48.13;96583.84;5116530;28;20027;-60
2022/05/15 06:52:18;;;;;;;6.88;3.97;;;;;;;25.55;44.96;96589.78;5116409;28;20393;-62
2022/05/15 06:54:44;;;;;;;5.00;3.67;;;;;;;25.87;44.90;96583.06;5116399;28;20030;-61
2022/05/15 06:59:53;;;;;;;5.18;3.40;;;;;;;26.27;43.11;96596.13;5116407;28;20058;-62
2022/05/15 07:02:19;;;;;;;4.95;3.08;;;;;;;26.49;43.97;96587.56;5116313;27;20082;-61
2022/05/15 07:04:45;;;;;;;6.93;3.58;;;;;;;26.68;41.89;96591.03;5116293;28;20024;-61
2022/05/15 07:07:11;;;;;;;4.18;3.47;;;;;;;26.82;42.38;96589.59;5116136;28;20066;-60
2022/05/15 07:09:37;;;;;;;3.55;3.25;;;;;;;26.90;40.60;96583.41;5116189;28;20043;-62
2022/05/15 07:12:06;;;;;;;4.68;3.28;;;;;;;26.80;40.01;96586.22;5116081;28;20023;-60
2022/05/15 07:14:34;;;;;;;5.97;2.80;;;;;;;26.86;41.39;96595.47;5115937;27;20039;-61
2022/05/15 07:16:59;;;;;;;3.83;3.20;;;;;;;27.08;40.02;96594.09;5116111;28;20039;-62
2022/05/15 07:19:26;;;;;;;10.65;3.38;;;;;;;27.59;42.73;96590.56;5116125;28;20026;-62
2022/05/15 07:21:56;;;;;;;5.65;3.13;;;;;;;27.91;38.54;96596.16;5116021;28;20035;-62
2022/05/15 07:24:22;;;;;;;4.75;3.30;;;;;;;27.93;38.19;96598.69;5115656;28;20526;-61
2022/05/15 07:26:49;;;;;;;8.13;3.13;;;;;;;28.04;37.75;96597.50;5115520;28;20035;-62
2022/05/15 07:29:16;;;;;;;5.65;2.97;;;;;;;28.21;35.49;96599.19;5115765;28;20016;-62
2022/05/15 07:31:43;;;;;;;6.35;2.85;;;;;;;28.47;36.76;96592.78;5115645;28;20047;-62
2022/05/15 07:34:10;;;;;;;3.90;2.80;;;;;;;28.86;37.64;96599.25;5115649;27;20092;-63
2022/05/15 07:36:38;;;;;;;6.15;2.80;;;;;;;28.64;32.53;96598.13;5115602;28;20099;-61
2022/05/15 07:39:04;;;;;;;3.88;2.70;;;;;;;28.45;34.60;96594.84;5115639;28;20019;-62
2022/05/15 07:41:31;;;;;;;2.95;2.40;;;;;;;28.45;34.96;96600.22;5115585;27;20030;-63
2022/05/15 07:43:56;;;;;;;3.67;2.58;;;;;;;28.51;35.19;96604.88;5115220;28;20035;-61
2022/05/15 07:46:22;;;;;;;3.63;2.70;;;;;;;28.51;33.67;96596.00;5115502;28;20043;-61
2022/05/15 07:48:48;;;;;;;2.55;2.10;;;;;;;28.24;33.44;96600.69;5115474;28;20112;-63
2022/05/15 07:51:14;;;;;;;4.25;2.50;;;;;;;28.22;34.80;96594.63;5115344;28;20362;-62
2022/05/15 07:53:41;;;;;;;4.75;2.70;;;;;;;28.31;35.43;96593.66;5115361;28;20543;-61
2022/05/15 07:56:12;;;;;;;4.32;2.83;;;;;;;28.66;34.72;96597.97;5115215;28;20016;-64
2022/05/15 07:58:40;;;;;;;6.35;2.60;;;;;;;28.81;35.38;96601.63;5115293;28;20062;-64
2022/05/15 08:01:07;;;;;;;10.82;3.28;;;;;;;28.38;35.47;96607.25;5115217;28;20160;-61
2022/05/15 08:03:43;;;;;;;6.20;3.00;;;;;;;28.06;35.68;96604.41;5115128;28;20016;-62
2022/05/15 08:08:55;;;;;;;4.38;2.97;;;;;;;27.88;35.62;96601.88;5115286;28;20039;-60
2022/05/15 08:11:26;;;;;;;4.18;2.58;;;;;;;28.15;38.41;96597.19;5114959;28;20020;-61
2022/05/15 08:13:52;;;;;;;;;;;;;;;28.49;36.00;96608.75;5115441;28;20369;-61
2022/05/15 08:16:17;;;;;;;3.22;2.92;;;;;;;28.72;37.69;96599.97;5114825;28;20018;-61
2022/05/15 08:24:11;;;;;;;5.32;3.65;;;;;;;27.91;40.95;96604.22;5115095;28;20062;-63
2022/05/15 08:26:37;;;;;;;6.45;3.75;;;;;;;27.67;43.85;96597.81;5114631;28;20081;-62
2022/05/15 08:29:03;;;;;;;7.70;4.45;;;;;;;27.91;41.94;96604.22;5114587;28;20019;-62
2022/05/15 08:31:30;;;;;;;7.50;4.95;;;;;;;27.14;44.76;96602.53;5114578;28;20031;-62
2022/05/15 08:33:56;;;;;;;4.90;4.45;;;;;;;26.72;43.73;96603.13;5114381;28;20027;-61
2022/05/15 08:36:22;;;;;;;4.97;4.05;;;;;;;26.85;44.30;96604.53;5114408;28;20027;-65
2022/05/15 08:38:48;;;;;;;6.43;4.18;;;;;;;26.92;43.42;96602.91;5113589;28;20022;-62
2022/05/15 08:41:40;;;;;;;4.70;3.22;;;;;;;27.32;41.02;96603.22;5114351;28;20092;-61
2022/05/15 08:44:29;;;;;;;6.20;3.90;;;;;;;27.77;41.17;96611.09;5114079;28;20083;-63
2022/05/15 08:47:05;;;;;;;6.00;3.85;;;;;;;27.69;39.71;96606.53;5114225;27;20055;-63
2022/05/15 08:49:39;;;;;;;4.93;3.47;;;;;;;27.74;40.00;96611.41;5114307;28;20469;-63
2022/05/15 08:52:04;;;;;;;4.45;3.03;;;;;;;28.13;41.55;96605.41;5114204;28;20111;-64
2022/05/15 08:54:37;;;;;;;7.50;3.75;;;;;;;28.54;42.13;96608.25;5113931;28;20161;-63
2022/05/15 08:57:03;;;;;;;5.05;3.67;;;;;;;28.78;41.42;96609.19;5112951;28;20023;-61
2022/05/15 08:59:38;;;;;;;3.55;3.15;;;;;;;28.88;41.19;96613.38;5114075;28;20021;-63
2022/05/15 09:02:08;;;;;;;5.70;3.38;;;;;;;28.94;38.53;96611.88;5114102;28;20023;-60
2022/05/15 09:04:34;;;;;;;7.63;3.40;;;;;;;28.84;38.75;96617.41;5113800;27;20065;-62
2022/05/15 09:07:38;;;;;;;7.05;3.70;;;;;;;28.43;39.43;96612.13;5114049;28;20046;-61
2022/05/15 09:10:13;;;;;;;8.68;4.00;;;;;;;28.27;41.16;96611.13;5113983;28;20038;-63
2022/05/15 09:12:43;;;;;;;6.72;3.92;;;;;;;27.87;42.12;96616.28;5113961;28;20100;-62
2022/05/15 09:15:18;;;;;;;5.93;4.13;;;;;;;27.39;43.64;96619.53;5113938;28;20053;-61
2022/05/15 09:17:47;;;;;;;5.82;4.20;;;;;;;27.19;43.62;96611.75;5113830;28;20417;-62
2022/05/15 09:20:22;;;;;;;5.60;4.20;;;;;;;26.96;43.67;96617.66;5113664;28;20027;-62
2022/05/15 09:23:02;;;;;;;5.45;4.40;;;;;;;26.42;44.48;96609.78;5113892;28;20153;-62
2022/05/15 09:25:35;;;;;;;5.70;4.70;;;;;;;25.98;45.59;96622.19;5113786;28;20011;-62
2022/05/15 09:28:10;;;;;;;5.97;4.68;;;;;;;25.52;47.08;96619.53;5112422;28;20035;-64
2022/05/15 09:30:42;;;;;;;7.57;4.90;;;;;;;25.28;47.80;96621.75;5113617;28;20157;-62
2022/05/15 09:33:23;;;;;;;4.82;4.30;;;;;;;25.12;47.48;96619.72;5113426;28;20060;-60
2022/05/15 09:35:49;;;;;;;5.43;4.32;;;;;;;24.85;47.64;96626.72;5113703;28;20023;-62
2022/05/15 09:38:28;;;;;;;5.95;4.00;;;;;;;24.63;48.53;96615.41;5113649;28;20046;-65
2022/05/15 09:44:35;;;;;;;6.20;4.43;;;;;;;24.84;48.90;96619.69;5058147;28;20101;-65
2022/05/15 09:47:19;;;;;;;6.10;4.50;;;;;;;24.58;49.37;96618.50;5113391;28;20074;-61
2022/05/15 09:49:45;;;;;;;7.07;4.78;;;;;;;24.64;49.91;96624.25;5115604;28;20427;-64
2022/05/15 09:52:32;;;;;;;6.55;4.18;;;;;;;24.73;48.79;96615.34;5117622;28;20081;-64
2022/05/15 09:55:11;;;;;;;8.52;4.50;;;;;;;24.81;48.95;96602.13;5117216;28;20039;-63
2022/05/15 09:57:38;;;;;;;4.88;4.07;;;;;;;24.90;46.92;96603.09;5117586;28;20027;-64
2022/05/15 10:00:12;;;;;;;5.47;4.30;;;;;;;24.73;47.74;96604.66;5117597;28;20034;-64
2022/05/15 10:02:46;;;;;;;7.05;4.15;;;;;;;24.81;47.98;96607.47;5117260;28;20118;-63
2022/05/15 10:05:29;;;;;;;6.30;4.50;;;;;;;25.15;46.85;96608.72;5117454;28;20031;-61
2022/05/15 10:08:09;;;;;;;7.63;4.28;;;;;;;25.53;46.83;96607.81;5117459;28;20027;-64
2022/05/15 10:10:43;;;;;;;5.85;4.10;;;;;;;25.78;46.08;96613.44;5117449;28;20430;-63
2022/05/15 10:13:22;;;;;;;7.35;4.50;;;;;;;25.69;44.50;96612.50;5117319;28;20057;-62
2022/05/15 10:15:50;;;;;;;9.27;4.20;;;;;;;25.81;45.77;96611.31;5117835;28;20019;-61
2022/05/15 10:18:25;;;;;;;7.80;4.43;;;;;;;26.24;45.58;96600.78;5117389;28;20430;-61
2022/05/15 10:20:52;;;;;;;7.07;3.80;;;;;;;26.40;43.22;96607.28;5117326;28;20092;-60
2022/05/15 10:23:40;;;;;;;7.30;4.00;;;;;;;26.78;45.36;96601.63;5117267;28;20031;-60
2022/05/15 10:26:20;;;;;;;5.57;3.70;;;;;;;27.06;42.39;96595.28;5117426;28;20035;-62
2022/05/15 10:28:59;;;;;;;8.32;3.80;;;;;;;27.04;42.54;96591.88;5117085;28;20027;-61
2022/05/15 10:31:37;;;;;;;14.15;3.85;;;;;;;27.21;41.27;96588.25;5117280;27;20039;-62
2022/05/15 10:34:14;;;;;;;4.80;3.78;;;;;;;27.31;43.89;96589.97;5116894;28;20028;-61
2022/05/15 10:36:57;;;;;;;5.68;3.47;;;;;;;27.65;42.24;96591.75;5116927;28;20485;-61
2022/05/15 10:39:29;;;;;;;8.63;3.47;;;;;;;27.94;40.96;96585.09;5116906;28;20034;-61
2022/05/15 10:42:15;;;;;;;11.55;3.72;;;;;;;27.89;39.75;96584.72;5116780;28;20081;-61
2022/05/15 10:44:59;;;;;;;9.05;3.50;;;;;;;27.87;40.00;96590.28;5115293;28;20389;-64
2022/05/15 10:47:38;;;;;;;5.72;3.10;;;;;;;27.58;38.29;96582.66;5116805;28;20085;-61
2022/05/15 10:50:18;;;;;;;8.70;3.60;;;;;;;27.67;40.00;96581.69;5116661;28;20035;-64
2022/05/15 10:52:51;;;;;;;5.50;3.35;;;;;;;27.80;38.95;96586.56;5116584;28;20031;-61
2022/05/15 10:59:22;;;;;;;9.43;4.00;;;;;;;26.04;42.48;96583.19;5116906;28;20076;-61
2022/05/15 11:02:09;;;;;;;4.78;3.65;;;;;;;25.50;42.58;96582.19;5061921;28;20044;-63
2022/05/15 11:04:47;;;;;;;5.40;3.78;;;;;;;25.24;44.89;96575.75;5116316;28;20051;-62
2022/05/15 11:07:24;;;;;;;9.57;3.70;;;;;;;25.25;46.41;96571.22;5116262;28;20032;-63
2022/05/15 11:10:06;;;;;;;6.18;3.60;;;;;;;25.30;45.71;96566.25;5116179;28;20043;-63
2022/05/15 11:12:38;;;;;;;5.78;3.75;;;;;;;25.30;44.82;96568.09;5116243;28;20031;-61
2022/05/15 11:15:41;;;;;;;14.82;4.43;;;;;;;25.28;45.45;96570.09;5116125;28;20027;-62
2022/05/15 11:18:32;;;;;;;6.68;4.00;;;;;;;25.18;44.71;96573.66;5115974;28;20064;-63
2022/05/15 11:21:06;;;;;;;8.57;3.78;;;;;;;25.03;44.80;96570.63;5116102;28;20027;-61
2022/05/15 11:23:38;;;;;;;7.20;3.72;;;;;;;25.06;45.22;96569.50;5115944;28;20099;-60
2022/05/15 11:26:21;;;;;;;5.93;3.40;;;;;;;24.93;44.56;96561.81;5116004;28;20058;-63
2022/05/15 11:28:52;;;;;;;6.20;3.70;;;;;;;24.97;45.88;96556.03;5115969;28;20032;-61
2022/05/15 11:31:22;;;;;;;7.78;3.65;;;;;;;24.93;45.76;96551.13;5115893;28;20385;-61
2022/05/15 11:33:48;;;;;;;;;;;;;;;24.94;43.01;96558.16;5116102;27;20031;-61
2022/05/15 11:36:26;;;;;;;4.63;3.28;;;;;;;24.92;43.56;96562.81;5115712;28;20288;-63
2022/05/15 11:39:13;;;;;;;7.93;3.78;;;;;;;24.97;43.82;96564.06;5115554;28;20059;-61
2022/05/15 11:41:39;;;;;;;5.00;2.97;;;;;;;24.92;44.08;96565.50;5115528;28;20051;-62
2022/05/15 11:44:10;;;;;;;4.85;3.20;;;;;;;24.98;43.77;96564.88;5115548;28;20078;-63
2022/05/15 11:47:20;;;;;;;5.38;3.60;;;;;;;25.05;47.09;96563.31;5115493;28;20485;-63
2022/05/15 11:50:03;;;;;;;9.30;3.63;;;;;;;25.15;47.48;96563.25;5099479;28;20042;-63
2022/05/15 11:52:53;;;;;;;4.95;3.28;;;;;;;25.39;46.68;96552.94;5115348;28;20318;-62
2022/05/15 11:55:40;;;;;;;5.50;3.50;;;;;;;25.80;45.32;96549.84;5107295;28;20060;-62
2022/05/15 11:58:17;;;;;;;5.03;3.00;;;;;;;26.18;44.50;96549.63;5115376;28;20027;-62
2022/05/15 12:00:58;;;;;;;7.90;3.30;;;;;;;26.38;45.24;96544.94;5115309;28;20031;-63
2022/05/15 12:03:43;;;;;;;3.50;3.10;;;;;;;26.62;43.59;96551.44;5115263;27;20026;-64
2022/05/15 12:06:12;;;;;;;8.68;3.78;;;;;;;26.86;43.30;96550.72;5115149;28;20439;-62
2022/05/15 12:08:40;;;;;;;4.10;3.33;;;;;;;26.81;42.55;96536.94;5115067;28;20046;-63